sensor_id;sensor_type;location;lat;lon;timestamp;pressure;altitude;pressure_sealevel;temperature;humidity
57376;BME280;44805;45.048;5.062;2023-03-18T00:01:20;99684.22;;;10.44;53.87
57376;BME280;44805;45.048;5.062;2023-03-18T00:03:46;99690.38;;;10.53;54.42
57376;BME280;44805;45.048;5.062;2023-03-18T00:06:12;99686.53;;;10.65;54.36
57376;BME280;44805;45.048;5.062;2023-03-18T00:08:38;99680.94;;;10.32;54.50
57376;BME280;44805;45.048;5.062;2023-03-18T00:11:04;99678.50;;;10.49;53.89
57376;BME280;44805;45.048;5.062;2023-03-18T00:13:31;99667.38;;;10.55;55.13
57376;BME280;44805;45.048;5.062;2023-03-18T00:15:58;99670.97;;;10.36;54.91
57376;BME280;44805;45.048;5.062;2023-03-18T00:18:23;99673.69;;;10.44;54.49
57376;BME280;44805;45.048;5.062;2023-03-18T00:20:49;99670.97;;;10.54;54.42
57376;BME280;44805;45.048;5.062;2023-03-18T00:23:15;99668.09;;;10.47;55.66
57376;BME280;44805;45.048;5.062;2023-03-18T00:25:42;99669.53;;;10.41;56.13
57376;BME280;44805;45.048;5.062;2023-03-18T00:28:08;99656.81;;;10.37;56.17
57376;BME280;44805;45.048;5.062;2023-03-18T00:30:36;99660.88;;;10.31;56.31
57376;BME280;44805;45.048;5.062;2023-03-18T00:33:01;99663.06;;;10.08;56.75
57376;BME280;44805;45.048;5.062;2023-03-18T00:35:27;99657.13;;;10.06;57.89
57376;BME280;44805;45.048;5.062;2023-03-18T00:37:53;99659.16;;;10.12;56.50
57376;BME280;44805;45.048;5.062;2023-03-18T00:40:19;99650.66;;;10.00;57.16
57376;BME280;44805;45.048;5.062;2023-03-18T00:42:51;99651.91;;;9.96;57.73
57376;BME280;44805;45.048;5.062;2023-03-18T00:45:21;99644.75;;;10.16;57.58
57376;BME280;44805;45.048;5.062;2023-03-18T00:47:47;99643.00;;;10.25;58.14
57376;BME280;44805;45.048;5.062;2023-03-18T00:50:14;99639.41;;;10.26;57.09
57376;BME280;44805;45.048;5.062;2023-03-18T00:52:39;99640.53;;;10.24;57.34
57376;BME280;44805;45.048;5.062;2023-03-18T00:55:05;99631.97;;;10.21;57.72
57376;BME280;44805;45.048;5.062;2023-03-18T00:57:31;99621.13;;;10.25;58.48
57376;BME280;44805;45.048;5.062;2023-03-18T00:59:57;99620.19;;;10.26;57.61
57376;BME280;44805;45.048;5.062;2023-03-18T01:02:23;99627.38;;;10.24;58.23
57376;BME280;44805;45.048;5.062;2023-03-18T01:04:49;99619.84;;;10.11;58.49
57376;BME280;44805;45.048;5.062;2023-03-18T01:07:15;99622.78;;;10.08;58.69
57376;BME280;44805;45.048;5.062;2023-03-18T01:09:41;99618.84;;;9.94;59.92
57376;BME280;44805;45.048;5.062;2023-03-18T01:12:07;99612.50;;;9.87;60.49
57376;BME280;44805;45.048;5.062;2023-03-18T01:14:34;99617.88;;;9.95;59.98
57376;BME280;44805;45.048;5.062;2023-03-18T01:17:00;99627.13;;;9.99;59.85
57376;BME280;44805;45.048;5.062;2023-03-18T01:19:26;99617.72;;;9.96;60.62
57376;BME280;44805;45.048;5.062;2023-03-18T01:21:53;99606.31;;;10.06;60.31
57376;BME280;44805;45.048;5.062;2023-03-18T01:24:18;99605.78;;;10.02;59.52
57376;BME280;44805;45.048;5.062;2023-03-18T01:26:44;99605.72;;;10.12;60.51
57376;BME280;44805;45.048;5.062;2023-03-18T01:29:09;99597.22;;;10.00;60.94
57376;BME280;44805;45.048;5.062;2023-03-18T01:31:35;99598.25;;;10.07;60.35
57376;BME280;44805;45.048;5.062;2023-03-18T01:34:01;99605.78;;;10.02;59.98
57376;BME280;44805;45.048;5.062;2023-03-18T01:36:27;99603.16;;;10.02;59.80
57376;BME280;44805;45.048;5.062;2023-03-18T01:38:53;99594.44;;;10.02;60.42
57376;BME280;44805;45.048;5.062;2023-03-18T01:41:20;99595.56;;;9.99;60.29
57376;BME280;44805;45.048;5.062;2023-03-18T01:43:45;99589.31;;;9.82;61.38
57376;BME280;44805;45.048;5.062;2023-03-18T01:48:55;99585.19;;;9.97;60.57
57376;BME280;44805;45.048;5.062;2023-03-18T01:51:20;99584.06;;;9.82;61.33
57376;BME280;44805;45.048;5.062;2023-03-18T01:53:47;99585.16;;;9.80;62.30
57376;BME280;44805;45.048;5.062;2023-03-18T01:56:13;99583.19;;;9.82;61.08
57376;BME280;44805;45.048;5.062;2023-03-18T01:58:40;99574.44;;;9.63;62.61
57376;BME280;44805;45.048;5.062;2023-03-18T02:01:12;99577.00;;;9.55;62.45
57376;BME280;44805;45.048;5.062;2023-03-18T02:03:39;99575.72;;;9.59;63.48
57376;BME280;44805;45.048;5.062;2023-03-18T02:06:05;99579.44;;;9.56;62.65
57376;BME280;44805;45.048;5.062;2023-03-18T02:08:30;99578.63;;;9.56;62.69
57376;BME280;44805;45.048;5.062;2023-03-18T02:10:56;99568.41;;;9.53;62.29
57376;BME280;44805;45.048;5.062;2023-03-18T02:13:21;99563.88;;;9.45;63.51
57376;BME280;44805;45.048;5.062;2023-03-18T02:15:49;99564.16;;;9.52;63.61
57376;BME280;44805;45.048;5.062;2023-03-18T02:18:17;99564.31;;;9.41;63.91
57376;BME280;44805;45.048;5.062;2023-03-18T02:20:52;99572.38;;;9.39;64.12
57376;BME280;44805;45.048;5.062;2023-03-18T02:23:34;99564.69;;;9.18;63.36
57376;BME280;44805;45.048;5.062;2023-03-18T02:28:34;99574.00;;;9.03;64.72
57376;BME280;44805;45.048;5.062;2023-03-18T02:31:03;99567.91;;;9.02;64.53
57376;BME280;44805;45.048;5.062;2023-03-18T02:33:30;99563.78;;;8.90;65.61
57376;BME280;44805;45.048;5.062;2023-03-18T02:36:03;99555.75;;;9.11;65.12
57376;BME280;44805;45.048;5.062;2023-03-18T02:38:30;99553.63;;;9.24;62.88
57376;BME280;44805;45.048;5.062;2023-03-18T02:40:55;99562.69;;;9.40;63.34
57376;BME280;44805;45.048;5.062;2023-03-18T02:45:49;99555.75;;;9.66;62.36
57376;BME280;44805;45.048;5.062;2023-03-18T02:48:19;99560.34;;;9.64;61.08
57376;BME280;44805;45.048;5.062;2023-03-18T02:50:47;99559.13;;;9.59;60.92
57376;BME280;44805;45.048;5.062;2023-03-18T02:53:14;99557.56;;;9.66;60.93
57376;BME280;44805;45.048;5.062;2023-03-18T02:55:39;99542.66;;;9.56;60.83
57376;BME280;44805;45.048;5.062;2023-03-18T02:58:05;99543.00;;;9.71;60.79
57376;BME280;44805;45.048;5.062;2023-03-18T03:00:31;99532.78;;;9.86;59.54
57376;BME280;44805;45.048;5.062;2023-03-18T03:02:57;99535.75;;;10.01;59.07
57376;BME280;44805;45.048;5.062;2023-03-18T03:05:22;99528.22;;;10.06;58.33
57376;BME280;44805;45.048;5.062;2023-03-18T03:07:47;99535.88;;;10.17;58.01
57376;BME280;44805;45.048;5.062;2023-03-18T03:10:13;99524.59;;;10.07;57.62
57376;BME280;44805;45.048;5.062;2023-03-18T03:12:38;99522.06;;;10.15;58.31
57376;BME280;44805;45.048;5.062;2023-03-18T03:15:05;99518.47;;;10.16;57.41
57376;BME280;44805;45.048;5.062;2023-03-18T03:17:32;99520.09;;;10.17;57.85
57376;BME280;44805;45.048;5.062;2023-03-18T03:19:58;99519.81;;;10.20;56.56
57376;BME280;44805;45.048;5.062;2023-03-18T03:22:23;99521.78;;;10.18;57.11
57376;BME280;44805;45.048;5.062;2023-03-18T03:24:49;99535.97;;;10.26;57.35
57376;BME280;44805;45.048;5.062;2023-03-18T03:27:14;99527.09;;;10.27;56.44
57376;BME280;44805;45.048;5.062;2023-03-18T03:29:40;99524.72;;;10.15;57.12
57376;BME280;44805;45.048;5.062;2023-03-18T03:32:06;99532.88;;;10.12;56.99
57376;BME280;44805;45.048;5.062;2023-03-18T03:34:31;99528.75;;;10.10;57.67
57376;BME280;44805;45.048;5.062;2023-03-18T03:36:57;99527.34;;;10.15;58.07
57376;BME280;44805;45.048;5.062;2023-03-18T03:39:23;99538.69;;;10.16;57.96
57376;BME280;44805;45.048;5.062;2023-03-18T03:41:49;99539.25;;;10.10;58.22
57376;BME280;44805;45.048;5.062;2023-03-18T03:44:14;99542.38;;;10.05;58.65
57376;BME280;44805;45.048;5.062;2023-03-18T03:46:39;99534.09;;;10.00;58.97
57376;BME280;44805;45.048;5.062;2023-03-18T03:49:05;99533.63;;;9.87;59.79
57376;BME280;44805;45.048;5.062;2023-03-18T03:51:31;99537.84;;;9.80;59.01
57376;BME280;44805;45.048;5.062;2023-03-18T03:53:56;99541.13;;;9.82;59.15
57376;BME280;44805;45.048;5.062;2023-03-18T03:56:22;99542.59;;;9.66;59.59
57376;BME280;44805;45.048;5.062;2023-03-18T03:58:47;99544.28;;;9.67;60.46
57376;BME280;44805;45.048;5.062;2023-03-18T04:01:12;99545.91;;;9.68;59.82
57376;BME280;44805;45.048;5.062;2023-03-18T04:03:38;99539.31;;;9.64;61.17
57376;BME280;44805;45.048;5.062;2023-03-18T04:06:03;99537.13;;;9.60;60.18
57376;BME280;44805;45.048;5.062;2023-03-18T04:08:29;99535.41;;;9.68;60.29
57376;BME280;44805;45.048;5.062;2023-03-18T04:10:54;99531.31;;;9.56;60.65
57376;BME280;44805;45.048;5.062;2023-03-18T04:13:20;99537.22;;;9.40;62.07
57376;BME280;44805;45.048;5.062;2023-03-18T04:15:46;99536.41;;;9.40;61.23
57376;BME280;44805;45.048;5.062;2023-03-18T04:18:12;99545.53;;;9.35;61.94
57376;BME280;44805;45.048;5.062;2023-03-18T04:20:39;99540.56;;;9.32;61.14
57376;BME280;44805;45.048;5.062;2023-03-18T04:23:04;99543.91;;;9.34;62.74
57376;BME280;44805;45.048;5.062;2023-03-18T04:25:31;99542.38;;;9.32;62.74
57376;BME280;44805;45.048;5.062;2023-03-18T04:27:57;99543.63;;;9.28;61.74
57376;BME280;44805;45.048;5.062;2023-03-18T04:30:22;99536.56;;;9.28;61.29
57376;BME280;44805;45.048;5.062;2023-03-18T04:32:49;99546.28;;;9.18;62.42
57376;BME280;44805;45.048;5.062;2023-03-18T04:35:16;99547.78;;;9.30;61.07
57376;BME280;44805;45.048;5.062;2023-03-18T04:37:42;99549.47;;;9.22;62.46
57376;BME280;44805;45.048;5.062;2023-03-18T04:40:08;99547.28;;;9.17;62.59
57376;BME280;44805;45.048;5.062;2023-03-18T04:42:34;99549.72;;;9.28;62.52
57376;BME280;44805;45.048;5.062;2023-03-18T04:45:00;99548.06;;;9.27;61.50
57376;BME280;44805;45.048;5.062;2023-03-18T04:47:26;99548.84;;;9.38;61.62
57376;BME280;44805;45.048;5.062;2023-03-18T04:49:52;99542.72;;;9.47;59.94
57376;BME280;44805;45.048;5.062;2023-03-18T04:52:18;99541.06;;;9.46;60.80
57376;BME280;44805;45.048;5.062;2023-03-18T04:54:44;99537.47;;;9.47;60.69
57376;BME280;44805;45.048;5.062;2023-03-18T04:57:09;99537.09;;;9.42;60.02
57376;BME280;44805;45.048;5.062;2023-03-18T04:59:35;99525.88;;;9.40;61.07
57376;BME280;44805;45.048;5.062;2023-03-18T05:02:00;99531.84;;;9.42;60.04
57376;BME280;44805;45.048;5.062;2023-03-18T05:04:26;99537.47;;;9.47;59.49
57376;BME280;44805;45.048;5.062;2023-03-18T05:06:52;99531.09;;;9.49;59.86
57376;BME280;44805;45.048;5.062;2023-03-18T05:09:17;99537.41;;;9.56;59.19
57376;BME280;44805;45.048;5.062;2023-03-18T05:11:44;99529.97;;;9.52;59.35
57376;BME280;44805;45.048;5.062;2023-03-18T05:14:09;99527.44;;;9.60;59.99
57376;BME280;44805;45.048;5.062;2023-03-18T05:16:35;99527.81;;;9.65;59.07
57376;BME280;44805;45.048;5.062;2023-03-18T05:19:01;99527.56;;;9.59;60.02
57376;BME280;44805;45.048;5.062;2023-03-18T05:21:26;99524.50;;;9.63;59.83
57376;BME280;44805;45.048;5.062;2023-03-18T05:23:51;99523.00;;;9.61;59.08
57376;BME280;44805;45.048;5.062;2023-03-18T05:26:17;99526.00;;;9.66;59.22
57376;BME280;44805;45.048;5.062;2023-03-18T05:28:42;99528.13;;;9.62;59.86
57376;BME280;44805;45.048;5.062;2023-03-18T05:31:08;99528.13;;;9.62;59.18
57376;BME280;44805;45.048;5.062;2023-03-18T05:33:33;99537.19;;;9.50;60.50
57376;BME280;44805;45.048;5.062;2023-03-18T05:35:59;99530.50;;;9.55;60.23
57376;BME280;44805;45.048;5.062;2023-03-18T05:38:24;99525.94;;;9.57;60.46
57376;BME280;44805;45.048;5.062;2023-03-18T05:40:50;99524.38;;;9.65;58.59
57376;BME280;44805;45.048;5.062;2023-03-18T05:43:16;99526.75;;;9.58;60.07
57376;BME280;44805;45.048;5.062;2023-03-18T05:45:41;99530.13;;;9.50;60.24
57376;BME280;44805;45.048;5.062;2023-03-18T05:48:08;99527.44;;;9.60;59.54
57376;BME280;44805;45.048;5.062;2023-03-18T05:50:39;99534.94;;;9.55;59.32
57376;BME280;44805;45.048;5.062;2023-03-18T05:53:06;99534.63;;;9.58;59.58
57376;BME280;44805;45.048;5.062;2023-03-18T05:55:31;99544.25;;;9.49;59.13
57376;BME280;44805;45.048;5.062;2023-03-18T05:57:57;99542.91;;;9.63;60.04
57376;BME280;44805;45.048;5.062;2023-03-18T06:00:24;99541.25;;;9.62;60.01
57376;BME280;44805;45.048;5.062;2023-03-18T06:02:50;99540.19;;;9.55;60.39
57376;BME280;44805;45.048;5.062;2023-03-18T06:05:19;99549.34;;;9.51;59.05
57376;BME280;44805;45.048;5.062;2023-03-18T06:07:45;99546.97;;;9.57;60.32
57376;BME280;44805;45.048;5.062;2023-03-18T06:10:11;99549.28;;;9.61;59.78
57376;BME280;44805;45.048;5.062;2023-03-18T06:12:37;99551.19;;;9.68;59.12
57376;BME280;44805;45.048;5.062;2023-03-18T06:15:02;99547.00;;;9.75;59.40
57376;BME280;44805;45.048;5.062;2023-03-18T06:17:28;99547.00;;;9.75;59.55
57376;BME280;44805;45.048;5.062;2023-03-18T06:19:53;99556.38;;;9.78;59.74
57376;BME280;44805;45.048;5.062;2023-03-18T06:22:21;99552.34;;;9.84;59.53
57376;BME280;44805;45.048;5.062;2023-03-18T06:24:46;99561.91;;;9.85;59.49
57376;BME280;44805;45.048;5.062;2023-03-18T06:27:12;99557.97;;;9.89;59.61
57376;BME280;44805;45.048;5.062;2023-03-18T06:29:37;99564.81;;;9.99;59.39
57376;BME280;44805;45.048;5.062;2023-03-18T06:32:03;99554.00;;;9.85;58.24
57376;BME280;44805;45.048;5.062;2023-03-18T06:34:28;99566.47;;;10.00;58.80
57376;BME280;44805;45.048;5.062;2023-03-18T06:36:53;99563.22;;;9.89;59.53
57376;BME280;44805;45.048;5.062;2023-03-18T06:39:20;99566.53;;;9.91;58.54
57376;BME280;44805;45.048;5.062;2023-03-18T06:41:45;99563.84;;;9.83;59.21
57376;BME280;44805;45.048;5.062;2023-03-18T06:44:11;99571.19;;;9.97;59.15
57376;BME280;44805;45.048;5.062;2023-03-18T06:46:37;99556.38;;;9.78;59.45
57376;BME280;44805;45.048;5.062;2023-03-18T06:49:02;99554.66;;;9.87;59.29
57376;BME280;44805;45.048;5.062;2023-03-18T06:51:28;99560.53;;;9.81;58.75
57376;BME280;44805;45.048;5.062;2023-03-18T06:53:53;99559.28;;;9.57;59.85
57376;BME280;44805;45.048;5.062;2023-03-18T06:56:19;99562.31;;;9.80;59.51
57376;BME280;44805;45.048;5.062;2023-03-18T06:58:44;99563.63;;;9.94;58.64
57376;BME280;44805;45.048;5.062;2023-03-18T07:01:10;99566.16;;;9.86;59.49
57376;BME280;44805;45.048;5.062;2023-03-18T07:03:37;99564.69;;;10.01;59.15
57376;BME280;44805;45.048;5.062;2023-03-18T07:06:03;99566.69;;;10.07;60.00
57376;BME280;44805;45.048;5.062;2023-03-18T07:08:28;99573.09;;;10.05;60.10
57376;BME280;44805;45.048;5.062;2023-03-18T07:10:53;99567.06;;;10.12;59.50
57376;BME280;44805;45.048;5.062;2023-03-18T07:13:19;99566.13;;;10.13;59.71
57376;BME280;44805;45.048;5.062;2023-03-18T07:15:45;99560.72;;;10.33;58.18
57376;BME280;44805;45.048;5.062;2023-03-18T07:18:12;99576.97;;;10.46;57.34
57376;BME280;44805;45.048;5.062;2023-03-18T07:20:38;99574.78;;;10.59;57.64
57376;BME280;44805;45.048;5.062;2023-03-18T07:23:04;99575.50;;;10.70;57.82
57376;BME280;44805;45.048;5.062;2023-03-18T07:25:29;99567.56;;;10.43;57.82
57376;BME280;44805;45.048;5.062;2023-03-18T07:27:56;99558.34;;;10.65;57.20
57376;BME280;44805;45.048;5.062;2023-03-18T07:30:22;99566.75;;;10.87;57.34
57376;BME280;44805;45.048;5.062;2023-03-18T07:32:47;99560.38;;;10.98;56.72
57376;BME280;44805;45.048;5.062;2023-03-18T07:35:14;99561.00;;;11.18;56.42
57376;BME280;44805;45.048;5.062;2023-03-18T07:37:39;99558.44;;;11.34;55.98
57376;BME280;44805;45.048;5.062;2023-03-18T07:40:05;99562.19;;;11.58;55.10
57376;BME280;44805;45.048;5.062;2023-03-18T07:42:31;99555.59;;;11.70;54.57
57376;BME280;44805;45.048;5.062;2023-03-18T07:44:57;99557.59;;;11.68;54.11
57376;BME280;44805;45.048;5.062;2023-03-18T07:47:23;99563.56;;;11.78;53.72
57376;BME280;44805;45.048;5.062;2023-03-18T07:49:49;99570.06;;;11.92;53.60
57376;BME280;44805;45.048;5.062;2023-03-18T07:52:16;99559.34;;;11.93;52.95
57376;BME280;44805;45.048;5.062;2023-03-18T07:54:45;99577.34;;;12.14;52.31
57376;BME280;44805;45.048;5.062;2023-03-18T07:57:10;99567.63;;;12.23;51.67
57376;BME280;44805;45.048;5.062;2023-03-18T08:02:11;99584.97;;;12.34;51.36
57376;BME280;44805;45.048;5.062;2023-03-18T08:04:38;99576.88;;;12.27;51.78
57376;BME280;44805;45.048;5.062;2023-03-18T08:07:04;99573.91;;;12.38;51.37
57376;BME280;44805;45.048;5.062;2023-03-18T08:09:29;99573.75;;;12.40;51.36
57376;BME280;44805;45.048;5.062;2023-03-18T08:11:54;99580.53;;;12.34;50.79
57376;BME280;44805;45.048;5.062;2023-03-18T08:14:20;99580.84;;;12.31;51.05
57376;BME280;44805;45.048;5.062;2023-03-18T08:16:46;99583.50;;;12.40;50.59
57376;BME280;44805;45.048;5.062;2023-03-18T08:19:11;99581.16;;;12.28;50.60
57376;BME280;44805;45.048;5.062;2023-03-18T08:21:37;99580.84;;;12.40;50.70
57376;BME280;44805;45.048;5.062;2023-03-18T08:24:03;99578.38;;;12.46;50.43
57376;BME280;44805;45.048;5.062;2023-03-18T08:26:29;99582.50;;;12.32;49.56
57376;BME280;44805;45.048;5.062;2023-03-18T08:28:55;99582.81;;;12.37;49.84
57376;BME280;44805;45.048;5.062;2023-03-18T08:31:20;99599.00;;;12.59;49.72
57376;BME280;44805;45.048;5.062;2023-03-18T08:33:46;99566.97;;;12.54;49.38
57376;BME280;44805;45.048;5.062;2023-03-18T08:36:13;99593.06;;;12.65;49.67
57376;BME280;44805;45.048;5.062;2023-03-18T08:38:39;99585.78;;;12.84;49.25
57376;BME280;44805;45.048;5.062;2023-03-18T08:41:05;99590.09;;;12.76;49.31
57376;BME280;44805;45.048;5.062;2023-03-18T08:43:30;99585.13;;;12.73;48.92
57376;BME280;44805;45.048;5.062;2023-03-18T08:45:56;99586.63;;;12.84;47.80
57376;BME280;44805;45.048;5.062;2023-03-18T08:48:22;99579.50;;;12.85;47.77
57376;BME280;44805;45.048;5.062;2023-03-18T08:50:48;99581.97;;;12.94;46.78
57376;BME280;44805;45.048;5.062;2023-03-18T08:53:17;99584.47;;;12.96;47.25
57376;BME280;44805;45.048;5.062;2023-03-18T08:55:42;99592.53;;;13.11;46.34
57376;BME280;44805;45.048;5.062;2023-03-18T08:58:08;99586.09;;;12.97;46.54
57376;BME280;44805;45.048;5.062;2023-03-18T09:00:35;99583.78;;;12.94;46.82
57376;BME280;44805;45.048;5.062;2023-03-18T09:03:00;99588.72;;;13.05;46.94
57376;BME280;44805;45.048;5.062;2023-03-18T09:05:27;99581.31;;;13.00;46.36
57376;BME280;44805;45.048;5.062;2023-03-18T09:07:52;99581.13;;;13.10;46.07
57376;BME280;44805;45.048;5.062;2023-03-18T09:10:18;99585.72;;;13.33;46.25
57376;BME280;44805;45.048;5.062;2023-03-18T09:12:44;99590.03;;;13.25;45.85
57376;BME280;44805;45.048;5.062;2023-03-18T09:15:10;99595.63;;;13.39;45.75
57376;BME280;44805;45.048;5.062;2023-03-18T09:17:36;99582.69;;;13.52;45.23
57376;BME280;44805;45.048;5.062;2023-03-18T09:20:05;99602.09;;;13.36;45.00
57376;BME280;44805;45.048;5.062;2023-03-18T09:22:31;99599.25;;;13.38;44.67
57376;BME280;44805;45.048;5.062;2023-03-18T09:24:57;99593.56;;;13.57;45.71
57376;BME280;44805;45.048;5.062;2023-03-18T09:27:22;99596.19;;;13.65;44.65
57376;BME280;44805;45.048;5.062;2023-03-18T09:29:48;99597.72;;;13.91;45.64
57376;BME280;44805;45.048;5.062;2023-03-18T09:32:13;99598.59;;;14.15;43.97
57376;BME280;44805;45.048;5.062;2023-03-18T09:34:40;99593.81;;;14.10;44.55
57376;BME280;44805;45.048;5.062;2023-03-18T09:37:05;99593.31;;;14.06;45.02
57376;BME280;44805;45.048;5.062;2023-03-18T09:39:31;99588.53;;;14.33;43.01
57376;BME280;44805;45.048;5.062;2023-03-18T09:44:32;99597.13;;;14.35;43.08
57376;BME280;44805;45.048;5.062;2023-03-18T09:47:02;99597.25;;;14.42;43.24
57376;BME280;44805;45.048;5.062;2023-03-18T09:52:34;99590.72;;;13.98;43.59
57376;BME280;44805;45.048;5.062;2023-03-18T09:55:02;99589.22;;;14.73;42.54
57376;BME280;44805;45.048;5.062;2023-03-18T09:57:33;99595.09;;;14.83;41.85
57376;BME280;44805;45.048;5.062;2023-03-18T10:00:02;99587.59;;;14.72;41.68
57376;BME280;44805;45.048;5.062;2023-03-18T10:05:03;99604.06;;;14.82;41.89
57376;BME280;44805;45.048;5.062;2023-03-18T10:07:32;99603.09;;;14.98;40.91
57376;BME280;44805;45.048;5.062;2023-03-18T10:12:34;99596.97;;;14.97;41.00
57376;BME280;44805;45.048;5.062;2023-03-18T10:17:27;99603.41;;;14.80;41.13
57376;BME280;44805;45.048;5.062;2023-03-18T10:19:56;99597.38;;;14.71;40.16
57376;BME280;44805;45.048;5.062;2023-03-18T10:38:02;99601.56;;;15.04;40.56
57376;BME280;44805;45.048;5.062;2023-03-18T10:40:38;99591.88;;;14.96;40.02
57376;BME280;44805;45.048;5.062;2023-03-18T10:43:10;99588.13;;;15.05;39.04
57376;BME280;44805;45.048;5.062;2023-03-18T10:45:39;99596.06;;;15.05;38.78
57376;BME280;44805;45.048;5.062;2023-03-18T10:48:09;99586.56;;;15.11;38.73
57376;BME280;44805;45.048;5.062;2023-03-18T10:53:19;99581.53;;;15.16;39.41
57376;BME280;44805;45.048;5.062;2023-03-18T10:55:50;99588.03;;;14.98;39.67
57376;BME280;44805;45.048;5.062;2023-03-18T10:58:17;99580.34;;;15.04;39.34
57376;BME280;44805;45.048;5.062;2023-03-18T11:00:43;99587.97;;;15.22;39.95
57376;BME280;44805;45.048;5.062;2023-03-18T11:04:10;99583.56;;;15.29;39.37
57376;BME280;44805;45.048;5.062;2023-03-18T11:06:03;99583.53;;;15.58;39.04
57376;BME280;44805;45.048;5.062;2023-03-18T11:11:21;99588.28;;;15.93;38.92
57376;BME280;44805;45.048;5.062;2023-03-18T11:13:49;99565.91;;;16.02;39.85
57376;BME280;44805;45.048;5.062;2023-03-18T11:19:28;99575.97;;;16.06;38.48
57376;BME280;44805;45.048;5.062;2023-03-18T11:21:59;99570.25;;;15.88;38.95
57376;BME280;44805;45.048;5.062;2023-03-18T11:24:28;99573.84;;;15.80;36.81
57376;BME280;44805;45.048;5.062;2023-03-18T11:27:00;99565.81;;;15.74;36.96
57376;BME280;44805;45.048;5.062;2023-03-18T11:29:27;99564.84;;;15.67;36.72
57376;BME280;44805;45.048;5.062;2023-03-18T11:31:55;99575.31;;;15.83;37.08
57376;BME280;44805;45.048;5.062;2023-03-18T11:34:32;99562.19;;;15.96;37.07
57376;BME280;44805;45.048;5.062;2023-03-18T11:37:01;99561.31;;;16.11;37.68
57376;BME280;44805;45.048;5.062;2023-03-18T11:39:29;99550.63;;;16.04;37.49
57376;BME280;44805;45.048;5.062;2023-03-18T11:41:56;99560.47;;;15.89;36.65
57376;BME280;44805;45.048;5.062;2023-03-18T11:44:23;99560.84;;;16.07;36.74
57376;BME280;44805;45.048;5.062;2023-03-18T11:46:52;99559.47;;;16.11;35.39
57376;BME280;44805;45.048;5.062;2023-03-18T11:49:22;99561.38;;;15.96;35.87
57376;BME280;44805;45.048;5.062;2023-03-18T11:57:02;99575.16;;;16.06;34.78
57376;BME280;44805;45.048;5.062;2023-03-18T11:59:44;99560.88;;;16.50;35.40
57376;BME280;44805;45.048;5.062;2023-03-18T12:20:49;99567.81;;;16.51;33.66
57376;BME280;44805;45.048;5.062;2023-03-18T12:25:52;99561.22;;;16.90;33.78
57376;BME280;44805;45.048;5.062;2023-03-18T12:35:53;99547.97;;;17.31;32.95
57376;BME280;44805;45.048;5.062;2023-03-18T12:46:27;99542.34;;;17.20;33.80
57376;BME280;44805;45.048;5.062;2023-03-18T12:49:08;99537.31;;;17.31;33.33
57376;BME280;44805;45.048;5.062;2023-03-18T12:51:41;99541.53;;;17.12;33.86
57376;BME280;44805;45.048;5.062;2023-03-18T12:54:15;99539.84;;;17.11;34.12
57376;BME280;44805;45.048;5.062;2023-03-18T12:56:43;99540.16;;;17.30;34.11
57376;BME280;44805;45.048;5.062;2023-03-18T12:59:18;99530.63;;;17.49;33.54
57376;BME280;44805;45.048;5.062;2023-03-18T13:04:24;99524.81;;;17.32;34.58
57376;BME280;44805;45.048;5.062;2023-03-18T13:09:44;99520.47;;;17.72;34.86
57376;BME280;44805;45.048;5.062;2023-03-18T13:17:13;99519.81;;;17.50;34.87
57376;BME280;44805;45.048;5.062;2023-03-18T13:19:40;99515.31;;;17.57;34.42
57376;BME280;44805;45.048;5.062;2023-03-18T13:35:30;99507.94;;;17.53;36.01
57376;BME280;44805;45.048;5.062;2023-03-18T13:38:11;99522.19;;;17.39;36.39
57376;BME280;44805;45.048;5.062;2023-03-18T13:40:44;99510.59;;;17.11;36.86
57376;BME280;44805;45.048;5.062;2023-03-18T13:43:17;99521.63;;;17.08;35.94
57376;BME280;44805;45.048;5.062;2023-03-18T13:45:44;99513.94;;;17.20;36.38
57376;BME280;44805;45.048;5.062;2023-03-18T13:48:12;99511.50;;;17.32;36.30
57376;BME280;44805;45.048;5.062;2023-03-18T13:50:41;99515.50;;;17.49;35.96
57376;BME280;44805;45.048;5.062;2023-03-18T13:53:23;99515.25;;;17.44;36.16
57376;BME280;44805;45.048;5.062;2023-03-18T13:56:03;99509.03;;;17.24;35.53
57376;BME280;44805;45.048;5.062;2023-03-18T13:58:35;99507.44;;;17.36;36.07
57376;BME280;44805;45.048;5.062;2023-03-18T14:14:01;99500.88;;;17.32;37.08
57376;BME280;44805;45.048;5.062;2023-03-18T14:19:04;99493.56;;;17.41;36.47
57376;BME280;44805;45.048;5.062;2023-03-18T14:21:32;99494.84;;;17.65;36.85
57376;BME280;44805;45.048;5.062;2023-03-18T14:24:02;99497.09;;;17.68;37.04
57376;BME280;44805;45.048;5.062;2023-03-18T14:26:34;99494.00;;;17.57;36.59
57376;BME280;44805;45.048;5.062;2023-03-18T14:41:51;99484.03;;;17.18;38.01
57376;BME280;44805;45.048;5.062;2023-03-18T14:44:51;99486.53;;;17.26;37.79
57376;BME280;44805;45.048;5.062;2023-03-18T14:47:16;99481.78;;;17.15;38.49
57376;BME280;44805;45.048;5.062;2023-03-18T14:49:59;99488.59;;;17.31;38.13
57376;BME280;44805;45.048;5.062;2023-03-18T14:54:58;99482.88;;;17.34;38.46
57376;BME280;44805;45.048;5.062;2023-03-18T14:57:25;99483.69;;;17.28;38.02
57376;BME280;44805;45.048;5.062;2023-03-18T14:59:50;99485.72;;;17.32;38.77
57376;BME280;44805;45.048;5.062;2023-03-18T15:02:23;99474.22;;;17.19;38.38
57376;BME280;44805;45.048;5.062;2023-03-18T15:04:54;99484.84;;;17.19;37.79
57376;BME280;44805;45.048;5.062;2023-03-18T15:07:21;99483.81;;;17.20;38.72
57376;BME280;44805;45.048;5.062;2023-03-18T15:09:49;99486.63;;;17.05;38.96
57376;BME280;44805;45.048;5.062;2023-03-18T15:12:24;99484.81;;;17.12;39.16
57376;BME280;44805;45.048;5.062;2023-03-18T15:14:50;99488.38;;;16.91;38.85
57376;BME280;44805;45.048;5.062;2023-03-18T15:17:16;99484.78;;;17.05;38.95
57376;BME280;44805;45.048;5.062;2023-03-18T15:19:42;99486.03;;;17.09;38.79
57376;BME280;44805;45.048;5.062;2023-03-18T15:22:07;99481.31;;;17.05;39.41
57376;BME280;44805;45.048;5.062;2023-03-18T15:24:34;99491.91;;;16.98;39.47
57376;BME280;44805;45.048;5.062;2023-03-18T15:27:13;99486.19;;;16.95;39.03
57376;BME280;44805;45.048;5.062;2023-03-18T15:34:37;99474.56;;;17.09;38.39